Santana do Sao Francisco, Brazil
Current Conditions -  °F | °C
As of 7:00 PM on Thursday 18 Dec 2014 (Local Time) from SBAR Reporting Station
Scattered Clouds Scattered Clouds  
Wind Chill: 77°   Ceiling: Unl
Heat Index: 78°   Visibility: 6mi
Dew Point: 73°   Wind: 5mph
Humidity: 89%   Direction: 90°E
Pressure: 29.88"   Gusts: NA
Location:  10.29°S, 36.61°W
Report Text: SBAR 182200Z 09004KT 9999 SCT015 SCT100 25/23 Q1012
Loading
Personal Weather Stations






























Interactive Weather Map New forecast layout! Learn more

10-Day Weather Forecast

Advertisements
Track Severe Weather on mobile